Lansing, MI (48917)

8:34 PM EDT on August 29, 2015 (GMT -0400)
(MAC) Lansing | | Change Station
CLOSE
Current Station
Personal Weather Station
Location: Lansing, MI
Elevation: 885 ft
Nearby Weather Stations

Elev 885 ft 42.74 °N, 84.66 °W | Updated 1 minute ago

Mostly Cloudy
Mostly Cloudy
66.5 °F
Feels Like 66.5 °F
N
0.0
Wind Variable Wind from SSE
Gusts 0.0 mph

Today
High -- | Low -- °F
--% Chance of Precip.
Yesterday
High -- | Low -- °F
Precip. -- in
6:59 AM 8:18 PM
Full, 100% visible
Pressure 30.07 in
Visibility 3.0 miles
Clouds Overcast 6000 ft
Dew Point 65 °F
Humidity 95%
Rainfall 0.15 in
Snow Depth Not available.
UV 0 out of 12
Pollen 8.50 out of 12
Air Quality Not available.
Flu Activity Not available.
METAR KLAN 292353Z 00000KT 3SM -RA BR OVC060 19/18 A3007 RMK AO2 RAB25 SLP182 P0001 60010 T01890183 10206 20189 58001
Pressure 30.07 in
Visibility 3.0 miles
Clouds Overcast 6000 ft
Dew Point 65 °F
Humidity 95%
Rainfall 0.15 in
Snow Depth Not available.
UV 0 out of 12
Pollen 8.50 out of 12
Air Quality Not available.
Flu Activity Not available.
METAR KLAN 292353Z 00000KT 3SM -RA BR OVC060 19/18 A3007 RMK AO2 RAB25 SLP182 P0001 60010 T01890183 10206 20189 58001

10-Day Weather Forecast

×

Almanac

Astronomy

Aug. 29, 2015 Rise Set
Actual Time
Civil Twilight
Nautical Twilight
Astronomical Twilight
Moon
Length of Visible Light
Length of Day
Tomorrow will be .
, % of the Moon is Illuminated

Today's Extremes

State Highs State Lows

Community

WunderPhotos

Upload Photos

1,850,807 photos uploaded!

WunderBlogs® & News

Nearby

Air Quality

  Air Quality AQ Index Pollutant
Not available.

Snow Depth

Station Depth Elevation

Earthquake Activity

City Distance Mag. Time & Date
Minimum magnitude displayed is 2.5.

Coastal Water Temperatures

Place Temperature

Stations

Nearby Weather Stations

Station Location Temp. Windchill Dew Point Humidity Wind Precip. Elev Updated Type